Time;durP1;ratioP1;P1;durP2;ratioP2;P2;SDS_P1;SDS_P2;PMS_P1;PMS_P2;Temp;Humidity;BMP_temperature;BMP_pressure;BME280_temperature;BME280_humidity;BME280_pressure;Samples;Min_cycle;Max_cycle;Signal;HPM_P1;HPM_P2
2021/07/05 00:00:46;;;;;;;8.23;6.10;;;;;;;;;;6216096;23;20007;-51
2021/07/05 00:03:12;;;;;;;7.88;6.22;;;;;;;;;;6215930;23;20577;-52
2021/07/05 00:05:38;;;;;;;9.63;6.30;;;;;;;;;;6215772;23;20003;-50
2021/07/05 00:08:04;;;;;;;8.30;6.38;;;;;;;;;;6215255;23;20603;-48
2021/07/05 00:10:30;;;;;;;8.65;6.43;;;;;;;;;;6215991;23;20001;-49
2021/07/05 00:12:57;;;;;;;7.95;6.47;;;;;;;;;;6216187;23;20007;-48
2021/07/05 00:15:25;;;;;;;8.02;6.18;;;;;;;;;;6215810;23;20460;-49
2021/07/05 00:17:52;;;;;;;8.85;6.40;;;;;;;;;;6214723;23;20005;-48
2021/07/05 00:20:19;;;;;;;8.02;5.95;;;;;;;;;;6215989;23;19997;-51
2021/07/05 00:22:45;;;;;;;8.77;6.18;;;;;;;;;;6216004;23;20004;-48
2021/07/05 00:25:11;;;;;;;7.97;6.28;;;;;;;;;;6215205;23;20075;-48
2021/07/05 00:27:37;;;;;;;8.73;6.13;;;;;;;;;;6215248;23;20000;-48
2021/07/05 00:30:04;;;;;;;8.23;6.28;;;;;;;;;;6215763;23;20012;-49
2021/07/05 00:32:30;;;;;;;9.98;6.75;;;;;;;;;;6215632;23;20083;-48
2021/07/05 00:34:56;;;;;;;7.63;6.38;;;;;;;;;;6215587;23;20036;-53
2021/07/05 00:37:22;;;;;;;7.18;6.13;;;;;;;;;;6215625;23;20004;-51
2021/07/05 00:39:48;;;;;;;9.90;7.05;;;;;;;;;;6215058;23;20023;-52
2021/07/05 00:42:14;;;;;;;8.52;7.53;;;;;;;;;;6215863;23;20019;-51
2021/07/05 00:44:40;;;;;;;9.43;7.30;;;;;;;;;;6215645;23;20410;-52
2021/07/05 00:47:05;;;;;;;11.38;7.63;;;;;;;;;;6215525;23;20007;-49
2021/07/05 00:49:31;;;;;;;7.82;6.20;;;;;;;;;;6214912;23;20499;-48
2021/07/05 00:51:58;;;;;;;8.75;6.80;;;;;;;;;;6215421;23;20001;-49
2021/07/05 00:54:24;;;;;;;12.15;6.63;;;;;;;;;;6215365;23;20017;-49
2021/07/05 00:56:50;;;;;;;9.98;7.53;;;;;;;;;;6215416;23;20058;-48
2021/07/05 00:59:16;;;;;;;8.65;7.35;;;;;;;;;;6215011;23;20035;-48
2021/07/05 01:01:42;;;;;;;9.23;7.07;;;;;;;;;;6215237;23;20016;-49
2021/07/05 01:04:09;;;;;;;9.40;7.32;;;;;;;;;;6215381;23;20001;-48
2021/07/05 01:06:35;;;;;;;9.77;8.20;;;;;;;;;;6215288;23;20004;-49
2021/07/05 01:09:01;;;;;;;7.97;7.10;;;;;;;;;;6214565;23;20004;-48
2021/07/05 01:11:27;;;;;;;9.02;6.90;;;;;;;;;;6215098;23;20028;-49
2021/07/05 01:13:53;;;;;;;13.73;7.68;;;;;;;;;;6189108;23;20043;-49
2021/07/05 01:16:19;;;;;;;8.68;7.18;;;;;;;;;;6214909;23;20632;-48
2021/07/05 01:18:45;;;;;;;8.98;6.90;;;;;;;;;;6214797;23;19996;-48
2021/07/05 01:21:11;;;;;;;10.52;7.30;;;;;;;;;;6215071;23;20004;-53
2021/07/05 01:23:38;;;;;;;11.70;7.40;;;;;;;;;;6214894;23;20067;-52
2021/07/05 01:26:04;;;;;;;12.13;7.50;;;;;;;;;;6215274;23;20464;-48
2021/07/05 01:28:30;;;;;;;9.55;7.63;;;;;;;;;;6214415;23;20004;-48
2021/07/05 01:30:56;;;;;;;9.45;7.50;;;;;;;;;;6214727;23;20081;-49
2021/07/05 01:33:22;;;;;;;8.65;7.60;;;;;;;;;;6214845;23;20001;-48
2021/07/05 01:35:48;;;;;;;8.57;7.57;;;;;;;;;;6215017;23;20377;-48
2021/07/05 01:38:19;;;;;;;10.48;7.88;;;;;;;;;;6214034;23;20087;-48
2021/07/05 01:41:06;;;;;;;9.73;7.47;;;;;;;;;;6214859;23;20008;-49
2021/07/05 01:43:33;;;;;;;9.57;7.13;;;;;;;;;;6214994;23;20087;-48
2021/07/05 01:45:59;;;;;;;8.43;7.32;;;;;;;;;;6214679;23;20087;-48
2021/07/05 01:48:25;;;;;;;10.88;8.52;;;;;;;;;;6214784;23;20050;-48
2021/07/05 01:50:51;;;;;;;10.40;7.35;;;;;;;;;;6214593;23;20043;-51
2021/07/05 01:53:19;;;;;;;7.90;7.07;;;;;;;;;;6214784;23;20055;-50
2021/07/05 01:55:45;;;;;;;9.35;7.93;;;;;;;;;;6214295;23;20000;-49
2021/07/05 01:58:12;;;;;;;11.52;8.25;;;;;;;;;;6214678;23;20001;-53
2021/07/05 02:00:40;;;;;;;9.68;6.93;;;;;;;;;;6214878;23;20011;-48
2021/07/05 02:03:06;;;;;;;12.45;7.57;;;;;;;;;;6215040;23;20089;-48
2021/07/05 02:05:33;;;;;;;9.68;7.97;;;;;;;;;;6214701;23;20458;-49
2021/07/05 02:07:59;;;;;;;11.55;7.80;;;;;;;;;;6214291;23;20421;-50
2021/07/05 02:10:29;;;;;;;9.27;7.57;;;;;;;;;;6214135;23;20024;-52
2021/07/05 02:12:56;;;;;;;8.85;7.47;;;;;;;;;;6214642;23;20410;-48
2021/07/05 02:15:23;;;;;;;9.23;7.32;;;;;;;;;;6214542;23;20028;-49
2021/07/05 02:17:49;;;;;;;9.23;7.70;;;;;;;;;;6214092;23;20008;-48
2021/07/05 02:20:16;;;;;;;10.77;8.07;;;;;;;;;;6214530;23;20011;-48
2021/07/05 02:22:43;;;;;;;10.05;8.13;;;;;;;;;;6214220;23;20401;-49
2021/07/05 02:25:10;;;;;;;10.90;8.80;;;;;;;;;;6213884;23;20011;-48
2021/07/05 02:27:37;;;;;;;12.23;8.73;;;;;;;;;;6214073;23;20095;-49
2021/07/05 02:30:07;;;;;;;10.23;8.25;;;;;;;;;;6188252;23;20147;-48
2021/07/05 02:32:33;;;;;;;12.23;8.50;;;;;;;;;;6214720;23;20032;-48
2021/07/05 02:34:59;;;;;;;10.63;9.02;;;;;;;;;;6214575;23;20005;-48
2021/07/05 02:37:25;;;;;;;11.75;8.32;;;;;;;;;;6213834;23;20325;-50
2021/07/05 02:39:51;;;;;;;11.93;9.45;;;;;;;;;;6213624;23;20004;-48
2021/07/05 02:42:17;;;;;;;10.40;8.65;;;;;;;;;;6214635;23;20009;-51
2021/07/05 02:44:43;;;;;;;10.77;8.65;;;;;;;;;;6213694;23;20066;-49
2021/07/05 02:47:09;;;;;;;10.70;9.02;;;;;;;;;;6214907;23;20046;-50
2021/07/05 02:49:35;;;;;;;12.48;9.23;;;;;;;;;;6214027;23;20020;-49
2021/07/05 02:52:01;;;;;;;11.20;9.27;;;;;;;;;;6214068;23;20001;-48
2021/07/05 02:54:27;;;;;;;13.75;10.27;;;;;;;;;;6214737;23;20387;-49
2021/07/05 02:56:53;;;;;;;11.82;8.88;;;;;;;;;;6214282;23;20008;-48
2021/07/05 02:59:19;;;;;;;10.80;9.00;;;;;;;;;;6213961;23;20298;-49
2021/07/05 03:01:46;;;;;;;10.57;8.82;;;;;;;;;;6214469;23;20004;-48
2021/07/05 03:04:11;;;;;;;12.77;9.77;;;;;;;;;;6214146;23;20011;-49
2021/07/05 03:06:37;;;;;;;12.52;9.32;;;;;;;;;;6214192;23;20430;-48
2021/07/05 03:09:04;;;;;;;10.98;8.98;;;;;;;;;;6213445;23;20059;-48
2021/07/05 03:11:30;;;;;;;10.82;9.30;;;;;;;;;;6214253;23;20025;-49
2021/07/05 03:13:56;;;;;;;10.98;9.40;;;;;;;;;;6214227;23;20037;-49
2021/07/05 03:16:22;;;;;;;11.10;9.65;;;;;;;;;;6214127;23;20004;-49
2021/07/05 03:18:48;;;;;;;12.00;10.32;;;;;;;;;;6214020;23;20036;-50
2021/07/05 03:21:14;;;;;;;11.15;9.30;;;;;;;;;;6214064;23;20095;-48
2021/07/05 03:23:40;;;;;;;11.38;8.95;;;;;;;;;;6214412;23;20036;-52
2021/07/05 03:26:08;;;;;;;14.27;9.75;;;;;;;;;;6213644;23;20560;-49
2021/07/05 03:28:35;;;;;;;11.70;9.65;;;;;;;;;;6213615;23;20035;-49
2021/07/05 03:31:01;;;;;;;10.90;9.07;;;;;;;;;;6214255;23;20068;-48
2021/07/05 03:33:29;;;;;;;11.77;9.15;;;;;;;;;;6214063;23;20000;-48
2021/07/05 03:35:55;;;;;;;11.35;9.13;;;;;;;;;;6213940;23;20008;-49
2021/07/05 03:38:21;;;;;;;11.75;9.00;;;;;;;;;;6213095;23;20001;-48
2021/07/05 03:40:48;;;;;;;11.15;9.18;;;;;;;;;;6214213;23;20005;-48
2021/07/05 03:43:14;;;;;;;12.65;9.55;;;;;;;;;;6214314;23;20001;-48
2021/07/05 03:45:41;;;;;;;11.13;9.80;;;;;;;;;;6214306;23;20005;-49
2021/07/05 03:48:08;;;;;;;12.65;9.48;;;;;;;;;;6213697;23;19992;-48
2021/07/05 03:50:35;;;;;;;13.35;9.55;;;;;;;;;;6215400;23;20421;-48
2021/07/05 03:53:01;;;;;;;10.55;9.27;;;;;;;;;;6215732;23;20028;-52
2021/07/05 03:55:31;;;;;;;11.07;9.13;;;;;;;;;;6216027;23;20066;-48
2021/07/05 03:57:58;;;;;;;11.10;9.40;;;;;;;;;;6215957;23;20036;-48
2021/07/05 04:00:27;;;;;;;11.80;9.55;;;;;;;;;;6215921;23;20007;-50
2021/07/05 04:02:55;;;;;;;13.07;9.90;;;;;;;;;;6215446;23;20004;-49
2021/07/05 04:05:21;;;;;;;11.52;9.10;;;;;;;;;;6215691;23;20000;-48
2021/07/05 04:07:48;;;;;;;11.55;8.98;;;;;;;;;;6215831;23;20088;-49
2021/07/05 04:10:15;;;;;;;12.10;10.00;;;;;;;;;;6188766;23;20376;-48
2021/07/05 04:12:42;;;;;;;11.38;9.75;;;;;;;;;;6215574;23;20004;-48
2021/07/05 04:15:08;;;;;;;10.63;9.05;;;;;;;;;;6215892;23;20011;-48
2021/07/05 04:17:34;;;;;;;11.60;9.25;;;;;;;;;;6215503;23;20050;-48
2021/07/05 04:20:00;;;;;;;10.48;9.18;;;;;;;;;;6215867;23;20004;-48
2021/07/05 04:22:26;;;;;;;13.50;10.30;;;;;;;;;;6215610;23;20008;-49
2021/07/05 04:24:52;;;;;;;12.32;9.50;;;;;;;;;;6215168;23;20005;-50
2021/07/05 04:27:18;;;;;;;12.40;10.07;;;;;;;;;;6215752;23;20004;-51
2021/07/05 04:29:44;;;;;;;12.30;9.13;;;;;;;;;;6215592;23;20015;-48
2021/07/05 04:32:10;;;;;;;10.98;9.15;;;;;;;;;;6215633;23;20007;-49
2021/07/05 04:34:36;;;;;;;10.85;9.38;;;;;;;;;;6215592;23;20349;-48
2021/07/05 04:37:03;;;;;;;10.13;9.02;;;;;;;;;;6215470;23;20001;-48
2021/07/05 04:39:29;;;;;;;10.88;9.32;;;;;;;;;;6214740;23;20032;-49
2021/07/05 04:41:55;;;;;;;12.05;8.85;;;;;;;;;;6215578;23;20001;-48
2021/07/05 04:44:21;;;;;;;13.45;8.77;;;;;;;;;;6215396;23;20008;-49
2021/07/05 04:46:49;;;;;;;12.23;9.60;;;;;;;;;;6215378;23;20306;-49
2021/07/05 04:49:18;;;;;;;10.65;8.30;;;;;;;;;;6215081;23;20032;-49
2021/07/05 04:51:44;;;;;;;10.43;8.98;;;;;;;;;;6215587;23;20033;-50
2021/07/05 04:54:10;;;;;;;15.85;8.77;;;;;;;;;;6215525;23;20000;-48
2021/07/05 04:56:36;;;;;;;11.38;9.43;;;;;;;;;;6215319;23;19997;-49
2021/07/05 04:59:03;;;;;;;14.70;8.45;;;;;;;;;;6214658;23;20004;-49
2021/07/05 05:01:29;;;;;;;11.90;9.30;;;;;;;;;;6215310;23;19996;-48
2021/07/05 05:03:55;;;;;;;10.57;8.32;;;;;;;;;;6215611;23;19997;-48
2021/07/05 05:06:21;;;;;;;11.35;8.45;;;;;;;;;;6215674;23;20004;-51
2021/07/05 05:08:49;;;;;;;14.15;8.30;;;;;;;;;;6215171;23;19997;-48
2021/07/05 05:11:15;;;;;;;10.52;8.35;;;;;;;;;;6214966;23;20009;-51
2021/07/05 05:13:41;;;;;;;12.63;7.75;;;;;;;;;;6215733;23;20024;-50
2021/07/05 05:16:07;;;;;;;10.48;7.72;;;;;;;;;;6215630;23;20069;-48
2021/07/05 05:18:33;;;;;;;10.18;7.85;;;;;;;;;;6215063;23;20076;-49
2021/07/05 05:20:59;;;;;;;9.07;7.85;;;;;;;;;;6215064;23;20032;-49
2021/07/05 05:23:25;;;;;;;11.30;7.72;;;;;;;;;;6214490;23;20008;-49
2021/07/05 05:25:51;;;;;;;10.57;7.80;;;;;;;;;;6214909;23;20034;-51
2021/07/05 05:28:17;;;;;;;9.05;7.53;;;;;;;;;;6214761;23;20035;-51
2021/07/05 05:30:43;;;;;;;9.63;7.88;;;;;;;;;;6215407;23;20000;-48
2021/07/05 05:33:09;;;;;;;10.82;7.95;;;;;;;;;;6215676;23;20008;-48
2021/07/05 05:35:35;;;;;;;11.18;7.75;;;;;;;;;;6216000;23;20444;-49
2021/07/05 05:38:01;;;;;;;8.35;6.85;;;;;;;;;;6215653;23;20103;-49
2021/07/05 05:40:28;;;;;;;10.57;7.85;;;;;;;;;;6215178;23;20031;-50
2021/07/05 05:42:54;;;;;;;13.55;7.72;;;;;;;;;;6215956;23;20008;-49
2021/07/05 05:45:23;;;;;;;9.07;7.30;;;;;;;;;;6214073;23;20463;-49
2021/07/05 05:47:49;;;;;;;9.02;6.78;;;;;;;;;;6214967;23;20009;-50
2021/07/05 05:50:16;;;;;;;10.30;6.88;;;;;;;;;;6215741;23;20020;-50
2021/07/05 05:52:42;;;;;;;9.90;7.07;;;;;;;;;;6215858;23;19997;-49
2021/07/05 05:55:08;;;;;;;10.70;7.45;;;;;;;;;;6215503;23;20443;-52
2021/07/05 05:57:37;;;;;;;9.93;7.13;;;;;;;;;;6215125;23;20008;-51
2021/07/05 06:00:05;;;;;;;9.98;6.75;;;;;;;;;;6215566;23;20440;-50
2021/07/05 06:02:31;;;;;;;9.13;6.65;;;;;;;;;;6188836;23;20085;-49
2021/07/05 06:04:57;;;;;;;10.27;7.05;;;;;;;;;;6215671;23;19997;-49
2021/07/05 06:07:23;;;;;;;8.68;6.15;;;;;;;;;;6215477;23;20104;-49
2021/07/05 06:09:49;;;;;;;6.82;6.13;;;;;;;;;;6214364;23;20008;-53
2021/07/05 06:12:17;;;;;;;9.23;6.90;;;;;;;;;;6214917;23;20392;-50
2021/07/05 06:14:43;;;;;;;8.70;6.55;;;;;;;;;;6215146;23;20066;-49
2021/07/05 06:17:09;;;;;;;7.75;5.72;;;;;;;;;;6215803;23;20005;-49
2021/07/05 06:19:35;;;;;;;12.82;6.22;;;;;;;;;;6214780;23;20012;-51
2021/07/05 06:22:02;;;;;;;7.65;5.88;;;;;;;;;;6215420;23;20028;-52
2021/07/05 06:24:28;;;;;;;8.93;5.80;;;;;;;;;;6215018;23;20035;-49
2021/07/05 06:26:54;;;;;;;9.50;5.85;;;;;;;;;;6215307;23;20004;-49
2021/07/05 06:29:20;;;;;;;7.70;5.30;;;;;;;;;;6214824;23;20302;-50
2021/07/05 06:31:46;;;;;;;7.78;5.57;;;;;;;;;;6214930;23;20070;-49
2021/07/05 06:34:12;;;;;;;7.30;5.03;;;;;;;;;;6215744;23;19993;-50
2021/07/05 06:36:38;;;;;;;6.47;4.75;;;;;;;;;;6215099;23;20003;-49
2021/07/05 06:39:04;;;;;;;6.00;4.90;;;;;;;;;;6215009;23;20416;-50
2021/07/05 06:41:30;;;;;;;5.72;4.72;;;;;;;;;;6215007;23;20031;-50
2021/07/05 06:43:56;;;;;;;9.20;4.82;;;;;;;;;;6215457;23;20001;-49
2021/07/05 06:46:22;;;;;;;6.18;4.60;;;;;;;;;;6215157;23;20000;-49
2021/07/05 06:48:49;;;;;;;6.18;5.00;;;;;;;;;;6214998;23;20409;-50
2021/07/05 06:51:15;;;;;;;5.75;4.75;;;;;;;;;;6214859;23;20008;-51
2021/07/05 06:53:41;;;;;;;5.35;4.30;;;;;;;;;;6214625;23;20441;-49
2021/07/05 06:56:07;;;;;;;6.53;4.97;;;;;;;;;;6214607;23;20074;-50
2021/07/05 06:58:33;;;;;;;5.57;4.22;;;;;;;;;;6215240;23;20012;-48
2021/07/05 07:01:00;;;;;;;5.68;4.30;;;;;;;;;;6215213;23;20004;-50
2021/07/05 07:03:26;;;;;;;6.60;4.28;;;;;;;;;;6215938;23;20000;-48
2021/07/05 07:05:52;;;;;;;5.20;3.97;;;;;;;;;;6215118;23;20039;-49
2021/07/05 07:08:18;;;;;;;5.75;4.18;;;;;;;;;;6214291;23;20001;-49
2021/07/05 07:10:44;;;;;;;9.02;4.10;;;;;;;;;;6215451;23;20306;-50
2021/07/05 07:13:10;;;;;;;5.60;4.03;;;;;;;;;;6214724;23;20008;-48
2021/07/05 07:15:39;;;;;;;6.18;4.28;;;;;;;;;;6215098;23;20008;-50
2021/07/05 07:20:50;;;;;;;7.13;4.30;;;;;;;;;;6214518;23;20043;-50
2021/07/05 07:23:16;;;;;;;9.57;4.65;;;;;;;;;;6214562;23;20008;-50
2021/07/05 07:25:42;;;;;;;6.63;4.38;;;;;;;;;;6215710;23;20096;-49
2021/07/05 07:28:08;;;;;;;6.00;4.38;;;;;;;;;;6214928;23;20448;-49
2021/07/05 07:30:34;;;;;;;7.65;4.45;;;;;;;;;;6215956;23;20000;-49
2021/07/05 07:33:00;;;;;;;6.18;4.40;;;;;;;;;;6216099;23;20410;-49
2021/07/05 07:35:25;;;;;;;4.93;3.75;;;;;;;;;;6215633;23;20039;-51
2021/07/05 07:37:52;;;;;;;11.98;4.32;;;;;;;;;;6215520;23;20004;-50
2021/07/05 07:40:21;;;;;;;6.82;4.15;;;;;;;;;;6214816;23;20005;-51
2021/07/05 07:42:48;;;;;;;5.40;4.00;;;;;;;;;;6216085;23;20130;-53
2021/07/05 07:45:15;;;;;;;4.80;4.28;;;;;;;;;;6215223;23;20008;-52
2021/07/05 07:47:41;;;;;;;5.13;4.30;;;;;;;;;;6215035;23;20444;-50
2021/07/05 07:50:08;;;;;;;5.05;4.07;;;;;;;;;;6214806;23;20104;-50
2021/07/05 07:52:34;;;;;;;10.10;4.60;;;;;;;;;;6215814;23;20001;-48
2021/07/05 07:55:01;;;;;;;5.60;4.00;;;;;;;;;;6215287;23;20087;-47
2021/07/05 07:57:27;;;;;;;5.60;4.20;;;;;;;;;;6215302;23;20004;-50
2021/07/05 07:59:53;;;;;;;7.35;4.85;;;;;;;;;;6215586;23;20562;-47
2021/07/05 08:02:19;;;;;;;8.45;4.95;;;;;;;;;;6215253;23;20005;-47
2021/07/05 08:04:45;;;;;;;7.60;4.80;;;;;;;;;;6215147;23;20380;-47
2021/07/05 08:07:11;;;;;;;6.68;4.63;;;;;;;;;;6215644;23;20023;-48
2021/07/05 08:09:38;;;;;;;8.15;5.22;;;;;;;;;;6214352;23;20052;-47
2021/07/05 08:12:05;;;;;;;12.02;5.15;;;;;;;;;;6214659;23;20012;-47
2021/07/05 08:14:31;;;;;;;8.23;5.00;;;;;;;;;;6215058;23;20325;-47
2021/07/05 08:16:57;;;;;;;5.32;4.30;;;;;;;;;;6214587;23;20004;-48
2021/07/05 08:19:23;;;;;;;6.90;5.07;;;;;;;;;;6214300;23;20418;-48
2021/07/05 08:21:50;;;;;;;7.15;4.82;;;;;;;;;;6215378;23;20298;-48
2021/07/05 08:24:16;;;;;;;6.65;4.80;;;;;;;;;;6214899;23;20087;-47
2021/07/05 08:26:42;;;;;;;6.55;5.20;;;;;;;;;;6214789;23;19996;-48
2021/07/05 08:29:09;;;;;;;6.47;5.32;;;;;;;;;;6214792;23;20028;-47
2021/07/05 08:31:35;;;;;;;7.00;5.10;;;;;;;;;;6214999;23;20076;-48
2021/07/05 08:34:01;;;;;;;8.27;5.78;;;;;;;;;;6215012;23;20028;-49
2021/07/05 08:36:28;;;;;;;10.07;5.22;;;;;;;;;;6214543;23;20009;-48
2021/07/05 08:38:54;;;;;;;9.80;5.63;;;;;;;;;;6214184;23;20087;-47
2021/07/05 08:41:20;;;;;;;6.32;5.15;;;;;;;;;;6214761;23;20011;-47
2021/07/05 08:43:47;;;;;;;13.57;6.03;;;;;;;;;;6215259;23;20011;-48
2021/07/05 08:46:15;;;;;;;6.97;5.57;;;;;;;;;;6214519;23;20028;-48
2021/07/05 08:48:42;;;;;;;6.78;5.32;;;;;;;;;;6214184;23;20329;-47
2021/07/05 08:51:13;;;;;;;7.93;5.00;;;;;;;;;;6215139;23;20005;-47
2021/07/05 08:53:40;;;;;;;7.18;5.35;;;;;;;;;;6214776;23;20005;-48
2021/07/05 08:56:06;;;;;;;6.78;5.10;;;;;;;;;;6214618;23;20043;-48
2021/07/05 08:58:32;;;;;;;7.57;5.68;;;;;;;;;;6187769;23;20001;-48
2021/07/05 09:00:58;;;;;;;8.30;5.25;;;;;;;;;;6214486;23;20023;-49
2021/07/05 09:03:25;;;;;;;6.97;5.10;;;;;;;;;;6214765;23;20004;-49
2021/07/05 09:06:11;;;;;;;8.00;5.90;;;;;;;;;;6214970;23;20028;-47
2021/07/05 09:08:40;;;;;;;8.35;5.72;;;;;;;;;;6214436;23;20024;-47
2021/07/05 09:11:26;;;;;;;7.75;4.85;;;;;;;;;;6214724;23;20382;-48
2021/07/05 09:13:53;;;;;;;7.57;5.20;;;;;;;;;;6189479;23;20058;-48
2021/07/05 09:16:33;;;;;;;9.98;5.15;;;;;;;;;;6214089;23;20004;-47
2021/07/05 09:18:59;;;;;;;7.05;5.15;;;;;;;;;;6213859;23;20031;-47
2021/07/05 09:21:29;;;;;;;6.50;5.13;;;;;;;;;;6214767;23;20013;-47
2021/07/05 09:24:03;;;;;;;5.40;4.10;;;;;;;;;;6214171;23;20008;-50
2021/07/05 09:26:38;;;;;;;5.25;4.28;;;;;;;;;;6214979;23;20012;-47
2021/07/05 09:29:06;;;;;;;7.45;4.45;;;;;;;;;;6214479;23;20421;-47
2021/07/05 09:31:43;;;;;;;8.27;4.95;;;;;;;;;;6213938;23;20360;-48
2021/07/05 09:34:17;;;;;;;7.65;4.57;;;;;;;;;;6214884;23;20417;-48
2021/07/05 09:36:43;;;;;;;6.10;4.55;;;;;;;;;;6214206;23;20076;-48
2021/07/05 09:39:14;;;;;;;6.65;4.75;;;;;;;;;;6214173;23;20044;-50
2021/07/05 09:41:40;;;;;;;5.43;4.57;;;;;;;;;;6214747;23;20000;-48
2021/07/05 09:44:11;;;;;;;8.07;4.50;;;;;;;;;;6213918;23;20309;-47
2021/07/05 09:46:37;;;;;;;6.32;4.95;;;;;;;;;;6214312;23;20004;-48
2021/07/05 09:49:11;;;;;;;4.93;4.43;;;;;;;;;;6213669;23;20011;-49
2021/07/05 09:51:37;;;;;;;8.38;4.65;;;;;;;;;;6214497;23;20005;-48
2021/07/05 09:54:03;;;;;;;7.05;4.43;;;;;;;;;;6214103;23;20092;-50
2021/07/05 09:56:30;;;;;;;6.32;4.47;;;;;;;;;;6214391;23;19996;-48
2021/07/05 09:58:58;;;;;;;5.63;3.88;;;;;;;;;;6213787;23;20473;-48
2021/07/05 10:01:43;;;;;;;5.35;3.35;;;;;;;;;;6214421;23;20450;-48
2021/07/05 10:04:10;;;;;;;5.38;3.22;;;;;;;;;;6214823;23;19997;-50
2021/07/05 10:06:40;;;;;;;5.30;3.38;;;;;;;;;;6214015;23;20001;-50
2021/07/05 10:09:07;;;;;;;4.30;3.25;;;;;;;;;;6213992;23;20005;-48
2021/07/05 10:11:33;;;;;;;3.60;3.05;;;;;;;;;;6214052;23;20001;-51
2021/07/05 10:14:13;;;;;;;6.75;3.38;;;;;;;;;;6214048;23;20370;-48
2021/07/05 10:16:39;;;;;;;5.88;3.78;;;;;;;;;;6214592;23;20012;-48
2021/07/05 10:19:05;;;;;;;3.20;2.80;;;;;;;;;;6213523;23;20011;-48
2021/07/05 10:21:31;;;;;;;5.55;3.28;;;;;;;;;;6213413;23;20055;-49
2021/07/05 10:23:57;;;;;;;4.15;3.05;;;;;;;;;;6214633;23;20009;-48
2021/07/05 10:26:23;;;;;;;5.53;3.20;;;;;;;;;;6213843;23;20467;-48
2021/07/05 10:28:49;;;;;;;5.05;3.53;;;;;;;;;;6213985;23;20000;-48
2021/07/05 10:31:16;;;;;;;4.20;3.00;;;;;;;;;;6213992;23;20485;-48
2021/07/05 10:33:42;;;;;;;4.82;3.35;;;;;;;;;;6214545;23;20370;-48
2021/07/05 10:36:10;;;;;;;6.05;3.45;;;;;;;;;;6213824;23;20376;-48
2021/07/05 10:38:39;;;;;;;4.78;3.63;;;;;;;;;;6214172;23;20008;-48
2021/07/05 10:41:09;;;;;;;5.07;3.58;;;;;;;;;;6214698;23;20380;-48
2021/07/05 10:44:05;;;;;;;4.45;3.08;;;;;;;;;;6213717;23;20432;-48
2021/07/05 10:46:43;;;;;;;4.30;3.42;;;;;;;;;;6182886;23;20008;-50
2021/07/05 10:49:10;;;;;;;5.88;3.40;;;;;;;;;;6213329;23;20036;-48
2021/07/05 10:51:46;;;;;;;3.65;3.17;;;;;;;;;;6214209;23;20084;-50
2021/07/05 10:54:12;;;;;;;5.57;3.65;;;;;;;;;;6213857;23;20004;-48
2021/07/05 10:56:43;;;;;;;4.03;3.08;;;;;;;;;;6213796;23;20024;-48
2021/07/05 10:59:12;;;;;;;6.35;3.70;;;;;;;;;;6213511;23;20042;-49
2021/07/05 11:01:46;;;;;;;4.80;3.47;;;;;;;;;;6213934;23;20495;-47
2021/07/05 11:04:19;;;;;;;3.40;2.85;;;;;;;;;;6213908;23;20408;-50
2021/07/05 11:06:45;;;;;;;;;;;;;;;;;;6214982;23;20087;-47
2021/07/05 11:09:16;;;;;;;3.78;2.85;;;;;;;;;;6213599;23;20309;-51
2021/07/05 11:11:46;;;;;;;4.10;3.08;;;;;;;;;;6213932;23;20310;-48
2021/07/05 11:14:22;;;;;;;7.03;3.17;;;;;;;;;;6214315;23;20004;-48
2021/07/05 11:17:06;;;;;;;3.53;3.00;;;;;;;;;;6213585;23;20004;-48
2021/07/05 11:19:34;;;;;;;6.65;3.28;;;;;;;;;;6213997;23;20012;-49
2021/07/05 11:22:01;;;;;;;5.50;3.13;;;;;;;;;;6214293;23;19996;-47
2021/07/05 11:24:49;;;;;;;5.28;2.97;;;;;;;;;;6213941;23;19996;-47
2021/07/05 11:27:25;;;;;;;3.35;3.05;;;;;;;;;;6214454;23;20024;-47
2021/07/05 11:29:51;;;;;;;8.40;2.95;;;;;;;;;;6212966;23;20468;-47
2021/07/05 11:32:34;;;;;;;3.63;2.53;;;;;;;;;;6214029;23;20008;-47
2021/07/05 11:35:00;;;;;;;4.85;3.22;;;;;;;;;;6212402;23;20005;-49
2021/07/05 11:37:27;;;;;;;7.35;3.80;;;;;;;;;;6211234;23;20618;-48
2021/07/05 11:39:54;;;;;;;4.55;2.55;;;;;;;;;;6210549;23;20012;-48
2021/07/05 11:42:43;;;;;;;4.18;2.55;;;;;;;;;;6210080;23;20317;-50
2021/07/05 11:45:10;;;;;;;3.60;2.85;;;;;;;;;;6211762;23;20329;-48
2021/07/05 11:47:41;;;;;;;3.88;2.63;;;;;;;;;;6212906;23;20003;-47
2021/07/05 11:50:24;;;;;;;3.33;2.88;;;;;;;;;;6213367;23;20052;-47
2021/07/05 11:53:01;;;;;;;4.38;2.90;;;;;;;;;;6213737;23;20083;-47
2021/07/05 11:55:28;;;;;;;4.63;3.47;;;;;;;;;;6213391;23;20421;-48
2021/07/05 11:57:59;;;;;;;3.10;2.40;;;;;;;;;;6213131;23;20011;-47
2021/07/05 12:00:26;;;;;;;4.40;3.10;;;;;;;;;;6212325;23;20515;-48
2021/07/05 12:03:02;;;;;;;6.32;2.92;;;;;;;;;;6212702;23;20357;-48
2021/07/05 12:05:28;;;;;;;3.20;2.75;;;;;;;;;;6212349;23;20009;-49
2021/07/05 12:08:04;;;;;;;2.65;2.45;;;;;;;;;;6211796;23;20092;-48
2021/07/05 12:10:31;;;;;;;4.43;2.70;;;;;;;;;;6213287;23;19996;-48
2021/07/05 12:13:09;;;;;;;7.80;2.40;;;;;;;;;;6215486;23;20092;-48
2021/07/05 12:15:35;;;;;;;5.32;3.47;;;;;;;;;;6215254;23;20055;-48
2021/07/05 12:18:01;;;;;;;5.55;3.00;;;;;;;;;;6214460;23;20004;-48
2021/07/05 12:20:27;;;;;;;5.68;2.85;;;;;;;;;;6215063;23;20019;-48
2021/07/05 12:22:53;;;;;;;3.45;2.50;;;;;;;;;;6215416;23;20033;-49
2021/07/05 12:25:19;;;;;;;3.65;2.55;;;;;;;;;;6214860;23;20088;-52
2021/07/05 12:27:46;;;;;;;3.88;3.05;;;;;;;;;;6214645;23;20000;-49
2021/07/05 12:30:14;;;;;;;4.43;2.78;;;;;;;;;;6214275;23;20001;-49
2021/07/05 12:32:40;;;;;;;4.35;2.50;;;;;;;;;;6215385;23;20024;-51
2021/07/05 12:35:13;;;;;;;2.75;2.40;;;;;;;;;;6215657;23;20005;-49
2021/07/05 12:37:54;;;;;;;3.85;2.45;;;;;;;;;;6214859;23;20083;-48
2021/07/05 12:40:28;;;;;;;3.40;2.50;;;;;;;;;;6215329;23;20313;-48
2021/07/05 12:42:55;;;;;;;3.35;2.40;;;;;;;;;;6215175;23;20036;-49
2021/07/05 12:45:25;;;;;;;2.53;2.10;;;;;;;;;;6214434;23;20004;-48
2021/07/05 12:47:53;;;;;;;2.33;2.10;;;;;;;;;;6215592;23;20384;-50
2021/07/05 12:50:21;;;;;;;4.75;2.92;;;;;;;;;;6215009;23;20345;-48
2021/07/05 12:53:00;;;;;;;3.60;2.30;;;;;;;;;;6213846;23;20001;-50
2021/07/05 12:55:26;;;;;;;4.18;2.03;;;;;;;;;;6215177;23;20008;-49
2021/07/05 12:57:53;;;;;;;3.03;1.92;;;;;;;;;;6214667;23;20005;-48
2021/07/05 13:00:20;;;;;;;5.63;1.90;;;;;;;;;;6214967;23;20005;-48
2021/07/05 13:02:46;;;;;;;3.15;2.35;;;;;;;;;;6214375;23;20046;-48
2021/07/05 13:05:14;;;;;;;3.33;2.10;;;;;;;;;;6214481;23;20000;-48
2021/07/05 13:07:50;;;;;;;3.75;2.25;;;;;;;;;;6214766;23;20031;-50
2021/07/05 13:10:22;;;;;;;2.92;2.38;;;;;;;;;;6215048;23;20005;-51
2021/07/05 13:12:58;;;;;;;2.90;2.22;;;;;;;;;;6215180;23;20025;-48
2021/07/05 13:15:25;;;;;;;2.38;2.17;;;;;;;;;;6214741;23;20005;-53
2021/07/05 13:17:51;;;;;;;5.50;2.17;;;;;;;;;;6187692;23;20480;-48
2021/07/05 13:20:18;;;;;;;3.33;2.30;;;;;;;;;;6214836;23;20294;-53
2021/07/05 13:22:51;;;;;;;3.22;2.17;;;;;;;;;;6213960;23;20009;-49
2021/07/05 13:25:17;;;;;;;2.95;2.15;;;;;;;;;;6214749;23;20098;-49
2021/07/05 13:27:43;;;;;;;3.70;2.70;;;;;;;;;;6214174;23;20004;-47
2021/07/05 13:30:13;;;;;;;3.03;2.22;;;;;;;;;;6214395;23;20067;-51
2021/07/05 13:32:53;;;;;;;4.10;2.58;;;;;;;;;;6213129;23;19997;-50
2021/07/05 13:35:24;;;;;;;4.60;2.45;;;;;;;;;;6214541;23;20014;-48
2021/07/05 13:37:50;;;;;;;2.17;1.70;;;;;;;;;;6213673;23;20043;-48
2021/07/05 13:40:23;;;;;;;2.88;2.20;;;;;;;;;;6214945;23;20000;-48
2021/07/05 13:42:51;;;;;;;;;;;;;;;;;;6214652;23;20410;-48
2021/07/05 13:45:21;;;;;;;2.67;2.10;;;;;;;;;;6214438;23;19911;-48
2021/07/05 13:47:48;;;;;;;3.95;2.15;;;;;;;;;;6213457;23;20004;-49
2021/07/05 13:50:27;;;;;;;2.63;2.00;;;;;;;;;;6214550;23;20042;-47
2021/07/05 13:52:55;;;;;;;2.25;1.98;;;;;;;;;;6214103;23;20000;-48
2021/07/05 13:55:38;;;;;;;5.28;2.05;;;;;;;;;;6213434;23;20001;-48
2021/07/05 13:58:05;;;;;;;2.75;1.75;;;;;;;;;;6214222;23;20074;-48
2021/07/05 14:00:32;;;;;;;2.70;1.52;;;;;;;;;;6213931;23;20004;-48
2021/07/05 14:02:58;;;;;;;2.95;1.45;;;;;;;;;;6214342;23;20005;-50
2021/07/05 14:05:29;;;;;;;2.45;1.23;;;;;;;;;;6214341;23;20035;-51
2021/07/05 14:07:55;;;;;;;2.03;1.60;;;;;;;;;;6213996;23;20417;-50
2021/07/05 14:10:21;;;;;;;1.70;1.27;;;;;;;;;;6213637;23;20719;-48
2021/07/05 14:12:47;;;;;;;1.70;1.10;;;;;;;;;;6214023;23;20031;-50
2021/07/05 14:15:13;;;;;;;3.70;1.33;;;;;;;;;;6214360;23;20028;-48
2021/07/05 14:17:39;;;;;;;1.48;1.02;;;;;;;;;;6186187;23;20008;-48
2021/07/05 14:20:06;;;;;;;1.58;0.90;;;;;;;;;;6214575;23;20001;-48
2021/07/05 14:22:32;;;;;;;0.90;0.70;;;;;;;;;;6214145;23;20000;-49
2021/07/05 14:24:58;;;;;;;1.13;0.80;;;;;;;;;;6214238;23;20019;-51
2021/07/05 14:27:24;;;;;;;1.58;0.90;;;;;;;;;;6214550;23;19996;-51
2021/07/05 14:29:50;;;;;;;0.80;0.60;;;;;;;;;;6214631;23;20437;-48
2021/07/05 14:32:16;;;;;;;1.55;0.60;;;;;;;;;;6213869;23;19997;-48
2021/07/05 14:34:42;;;;;;;1.60;0.57;;;;;;;;;;6214024;23;20361;-48
2021/07/05 14:37:08;;;;;;;2.33;0.45;;;;;;;;;;6213315;23;20075;-47
2021/07/05 14:39:34;;;;;;;0.95;0.50;;;;;;;;;;6213290;23;20409;-48
2021/07/05 14:42:00;;;;;;;3.35;0.50;;;;;;;;;;6213619;23;20024;-49
2021/07/05 14:44:27;;;;;;;1.40;0.50;;;;;;;;;;6213740;23;20008;-51
2021/07/05 14:46:53;;;;;;;0.93;0.43;;;;;;;;;;6214365;23;20428;-48